Itamonte, Brazil
Current Conditions -  °F | °C
As of 9:00 AM on Monday 20 Oct 2014 (Local Time) from SBGW Reporting Station
Broken Clouds Broken Clouds  
Wind Chill: 73°   Ceiling: 3000
Heat Index: 73°   Visibility: 5mi
Dew Point: 64°   Wind: 1mph
Humidity: 73%   Direction: 200°SSW
Pressure: 30"   Gusts: NA
Location:  22.28°S, 44.87°W
Report Text: SBGW 201200Z 20001KT 8000 BKN030 BKN100 23/18 Q1016
Loading
Personal Weather Stations






























Interactive Weather Map
Tropical Storm Tracking
New forecast layout! Learn more

10-Day Weather Forecast

Advertisements
Track Severe Weather on mobile